createdAt,value
2022-10-08T00:02:35.725Z,98966.53
2022-10-08T00:07:42.683Z,98967.13
2022-10-08T00:12:47.964Z,98953.25
2022-10-08T00:17:55.747Z,98963.09
2022-10-08T00:23:02.000Z,98966.44
2022-10-08T00:28:07.427Z,98964.78
2022-10-08T00:33:15.848Z,98948.81
2022-10-08T00:38:20.840Z,98947.22
2022-10-08T00:43:40.530Z,98939.00
2022-10-08T00:48:48.445Z,98941.25
2022-10-08T00:53:54.061Z,98935.72
2022-10-08T00:58:58.963Z,98923.38
2022-10-08T01:04:09.029Z,98918.22
2022-10-08T01:09:19.541Z,98911.63
2022-10-08T01:14:41.711Z,98911.94
2022-10-08T01:20:23.464Z,98916.31
2022-10-08T01:25:38.926Z,98903.09
2022-10-08T01:30:53.231Z,98890.72
2022-10-08T01:36:00.828Z,98883.88
2022-10-08T01:41:11.137Z,98884.84
2022-10-08T01:46:22.995Z,98874.50
2022-10-08T01:51:33.122Z,98870.91
2022-10-08T01:56:41.376Z,98864.66
2022-10-08T02:01:57.516Z,98873.91
2022-10-08T02:07:08.011Z,98858.22
2022-10-08T02:12:14.535Z,98864.88
2022-10-08T02:17:31.775Z,98851.91
2022-10-08T02:22:40.895Z,98846.09
2022-10-08T02:27:56.360Z,98832.53
2022-10-08T02:33:10.305Z,98839.94
2022-10-08T02:38:19.516Z,98839.75
2022-10-08T02:43:30.402Z,98843.75
2022-10-08T02:48:42.499Z,98834.19
2022-10-08T02:53:49.298Z,98835.78
2022-10-08T02:58:54.804Z,98830.13
2022-10-08T03:04:07.405Z,98836.84
2022-10-08T03:09:16.652Z,98833.47
2022-10-08T03:14:24.005Z,98837.06
2022-10-08T03:19:31.657Z,98837.09
2022-10-08T03:24:38.359Z,98834.41
2022-10-08T03:29:43.270Z,98841.81
2022-10-08T03:34:50.665Z,98831.44
2022-10-08T03:39:55.380Z,98838.50
2022-10-08T03:45:01.505Z,98835.53
2022-10-08T03:50:09.780Z,98829.84
2022-10-08T03:55:14.942Z,98836.63
2022-10-08T04:00:19.923Z,98824.69
2022-10-08T04:05:27.334Z,98835.19
2022-10-08T04:10:32.104Z,98827.38
2022-10-08T04:15:37.037Z,98827.81
2022-10-08T04:20:45.152Z,98832.72
2022-10-08T04:25:53.630Z,98834.44
2022-10-08T04:31:00.701Z,98827.78
2022-10-08T04:36:10.682Z,98834.75
2022-10-08T04:41:17.764Z,98824.97
2022-10-08T04:46:24.523Z,98829.78
2022-10-08T04:51:32.007Z,98829.91
2022-10-08T04:56:37.729Z,98833.72
2022-10-08T05:01:42.600Z,98839.34
2022-10-08T05:06:49.999Z,98838.06
2022-10-08T05:11:54.799Z,98833.78
2022-10-08T05:16:59.569Z,98833.94
2022-10-08T05:22:07.009Z,98830.31
2022-10-08T05:27:11.931Z,98839.88
2022-10-08T05:32:16.699Z,98843.97
2022-10-08T05:37:24.028Z,98848.81
2022-10-08T05:42:28.886Z,98849.78
2022-10-08T05:47:33.782Z,98855.41
2022-10-08T05:52:41.203Z,98851.44
2022-10-08T05:57:45.996Z,98857.25
2022-10-08T06:02:52.657Z,98871.09
2022-10-08T06:08:00.074Z,98876.00
2022-10-08T06:13:04.835Z,98886.25
2022-10-08T06:18:09.668Z,98885.44
2022-10-08T06:23:17.144Z,98896.63
2022-10-08T06:28:21.907Z,98897.31
2022-10-08T06:33:26.811Z,98902.31
2022-10-08T06:38:34.190Z,98910.34
2022-10-08T06:43:39.224Z,98923.56
2022-10-08T06:48:45.121Z,98926.94
2022-10-08T06:53:55.755Z,98926.66
2022-10-08T06:59:00.864Z,98926.66
2022-10-08T07:04:07.436Z,98929.66
2022-10-08T07:09:14.984Z,98935.47
2022-10-08T07:14:20.068Z,98940.41
2022-10-08T07:19:24.833Z,98938.78
2022-10-08T07:24:32.193Z,98936.56
2022-10-08T07:29:37.003Z,98929.84
2022-10-08T07:34:41.861Z,98935.81
2022-10-08T07:39:49.290Z,98939.53
2022-10-08T07:44:54.889Z,98936.88
2022-10-08T07:49:59.637Z,98944.44
2022-10-08T07:55:07.761Z,98949.25
2022-10-08T08:00:13.982Z,98955.25
2022-10-08T08:05:19.625Z,98943.44
2022-10-08T08:10:27.137Z,98953.06
2022-10-08T08:15:32.002Z,98954.63
2022-10-08T08:20:37.303Z,98960.25
2022-10-08T08:25:45.081Z,98949.69
2022-10-08T08:30:49.992Z,98953.03
2022-10-08T08:35:55.824Z,98955.28
2022-10-08T08:41:20.937Z,98953.50
2022-10-08T08:46:26.267Z,98960.44
2022-10-08T08:51:31.481Z,98966.38
2022-10-08T08:56:38.985Z,98964.47
2022-10-08T09:01:48.026Z,98967.38
2022-10-08T09:06:56.426Z,98977.91
2022-10-08T09:12:11.899Z,98974.41
2022-10-08T09:17:20.879Z,98981.97
2022-10-08T09:22:29.015Z,98975.88
2022-10-08T09:27:50.907Z,98977.91
2022-10-08T09:32:56.285Z,98982.41
2022-10-08T09:38:05.663Z,98987.75
2022-10-08T09:43:20.174Z,98994.38
2022-10-08T09:48:27.639Z,98990.56
2022-10-08T09:53:37.803Z,98998.56
2022-10-08T09:58:55.218Z,98997.91
2022-10-08T10:04:02.249Z,99007.50
2022-10-08T10:09:26.925Z,99009.41
2022-10-08T10:14:44.098Z,99010.75
2022-10-08T10:19:56.976Z,99016.66
2022-10-08T10:25:08.628Z,99013.31
2022-10-08T10:30:23.150Z,99008.63
2022-10-08T10:35:31.677Z,99018.53
2022-10-08T10:40:43.322Z,99019.81
2022-10-08T10:45:57.883Z,99022.03
2022-10-08T10:51:31.766Z,99019.81
2022-10-08T10:56:42.641Z,99019.53
2022-10-08T11:01:56.658Z,99020.53
2022-10-08T11:07:06.833Z,99015.56
2022-10-08T11:12:25.662Z,99015.69
2022-10-08T11:17:44.594Z,99013.97
2022-10-08T11:23:01.458Z,99002.75
2022-10-08T11:28:22.926Z,98996.66
2022-10-08T11:33:31.252Z,99002.03
2022-10-08T11:38:43.202Z,99001.97
2022-10-08T11:43:54.739Z,99008.34
2022-10-08T11:49:03.963Z,99009.22
2022-10-08T11:54:16.250Z,99003.69
2022-10-08T11:59:43.293Z,99011.06
2022-10-08T12:04:52.017Z,99007.28
2022-10-08T12:10:35.288Z,99012.66
2022-10-08T12:16:09.908Z,99009.31
2022-10-08T12:21:51.056Z,99015.34
2022-10-08T12:27:26.685Z,99007.47
2022-10-08T12:32:33.250Z,99005.59
2022-10-08T12:37:54.675Z,99008.38
2022-10-08T12:43:18.851Z,98999.22
2022-10-08T12:48:34.045Z,99006.88
2022-10-08T12:53:46.537Z,98997.75
2022-10-08T12:58:52.243Z,98996.88
2022-10-08T13:04:21.637Z,98986.59
2022-10-08T13:09:31.926Z,98988.91
2022-10-08T13:14:38.837Z,98990.69
2022-10-08T13:19:43.920Z,98997.91
2022-10-08T13:24:51.270Z,98993.34
2022-10-08T13:29:56.138Z,98999.22
2022-10-08T13:35:03.011Z,99003.13
2022-10-08T13:40:21.945Z,99006.94
2022-10-08T13:45:28.518Z,99006.25
2022-10-08T13:50:33.481Z,99007.81
2022-10-08T13:55:43.812Z,99013.75
2022-10-08T14:00:50.589Z,99009.16
2022-10-08T14:05:55.608Z,99006.97
2022-10-08T14:11:03.331Z,99020.34
2022-10-08T14:16:08.520Z,99022.16
2022-10-08T14:21:15.648Z,99031.91
2022-10-08T14:26:22.995Z,99034.50
2022-10-08T14:31:28.034Z,99049.63
2022-10-08T14:36:37.947Z,99055.72
2022-10-08T14:41:45.439Z,99062.53
2022-10-08T14:46:51.903Z,99074.72
2022-10-08T14:51:56.816Z,99064.34
2022-10-08T14:57:04.283Z,99054.81
2022-10-08T15:02:09.142Z,99064.91
2022-10-08T15:07:13.903Z,99081.69
2022-10-08T15:12:21.498Z,99084.41
2022-10-08T15:17:26.479Z,99094.66
2022-10-08T15:22:31.266Z,99101.00
2022-10-08T15:27:38.695Z,99104.34
2022-10-08T15:32:43.576Z,99107.47
2022-10-08T15:37:48.830Z,99119.28
2022-10-08T15:42:56.498Z,99136.94
2022-10-08T15:48:01.200Z,99140.91
2022-10-08T15:53:06.118Z,99144.19
2022-10-08T15:58:27.366Z,99161.53
2022-10-08T16:03:40.075Z,99174.31
2022-10-08T16:08:46.548Z,99170.38
2022-10-08T16:13:55.867Z,99157.28
2022-10-08T16:19:02.997Z,99163.13
2022-10-08T16:24:08.534Z,99179.63
2022-10-08T16:29:17.509Z,99184.22
2022-10-08T16:34:24.226Z,99188.31
2022-10-08T16:39:29.193Z,99191.78
2022-10-08T16:44:36.920Z,99197.13
2022-10-08T16:49:41.582Z,99215.56
2022-10-08T16:54:46.431Z,99223.13
2022-10-08T16:59:54.959Z,99225.09
2022-10-08T17:04:59.771Z,99242.94
2022-10-08T17:10:04.986Z,99252.00
2022-10-08T17:15:13.425Z,99249.75
2022-10-08T17:20:18.418Z,99253.91
2022-10-08T17:25:23.303Z,99270.97
2022-10-08T17:30:32.084Z,99272.25
2022-10-08T17:35:37.266Z,99299.06
2022-10-08T17:40:43.945Z,99300.66
2022-10-08T17:45:51.469Z,99315.72
2022-10-08T17:50:56.617Z,99310.13
2022-10-08T17:56:03.836Z,99320.09
2022-10-08T18:01:14.332Z,99317.88
2022-10-08T18:06:19.392Z,99329.25
2022-10-08T18:11:24.634Z,99332.22
2022-10-08T18:16:32.943Z,99343.06
2022-10-08T18:21:38.476Z,99345.25
2022-10-08T18:26:44.576Z,99356.13
2022-10-08T18:31:53.400Z,99360.78
2022-10-08T18:36:58.270Z,99367.88
2022-10-08T18:42:03.375Z,99367.81
2022-10-08T18:47:11.210Z,99373.09
2022-10-08T18:52:21.523Z,99395.06
2022-10-08T18:57:27.756Z,99396.38
2022-10-08T19:02:35.370Z,99404.28
2022-10-08T19:07:40.178Z,99397.03
2022-10-08T19:12:45.438Z,99409.19
2022-10-08T19:17:53.010Z,99417.38
2022-10-08T19:22:58.186Z,99422.09
2022-10-08T19:28:02.973Z,99429.72
2022-10-08T19:33:10.409Z,99431.50
2022-10-08T19:38:15.378Z,99450.66
2022-10-08T19:43:20.110Z,99450.50
2022-10-08T19:48:27.547Z,99458.09
2022-10-08T19:53:33.122Z,99457.13
2022-10-08T19:58:38.198Z,99469.91
2022-10-08T20:03:45.948Z,99478.75
2022-10-08T20:08:50.799Z,99477.31
2022-10-08T20:13:57.335Z,99492.50
2022-10-08T20:19:06.587Z,99503.13
2022-10-08T20:24:12.005Z,99506.88
2022-10-08T20:29:19.082Z,99515.84
2022-10-08T20:34:31.333Z,99521.72
2022-10-08T20:39:36.301Z,99523.91
2022-10-08T20:44:41.146Z,99530.88
2022-10-08T20:49:48.580Z,99535.25
2022-10-08T20:54:53.367Z,99545.09
2022-10-08T20:59:58.165Z,99551.66
2022-10-08T21:05:05.575Z,99557.06
2022-10-08T21:10:11.911Z,99562.72
2022-10-08T21:15:16.955Z,99559.47
2022-10-08T21:20:24.425Z,99569.59
2022-10-08T21:25:29.255Z,99573.06
2022-10-08T21:30:34.119Z,99571.38
2022-10-08T21:35:41.696Z,99570.69
2022-10-08T21:40:46.843Z,99574.41
2022-10-08T21:45:58.839Z,99581.81
2022-10-08T21:51:07.895Z,99584.72
2022-10-08T21:56:16.100Z,99585.81
2022-10-08T22:01:23.889Z,99587.34
2022-10-08T22:06:34.207Z,99596.50
2022-10-08T22:11:39.334Z,99597.00
2022-10-08T22:16:44.313Z,99602.69
2022-10-08T22:21:51.994Z,99612.94
2022-10-08T22:26:58.415Z,99601.34
2022-10-08T22:32:04.322Z,99610.91
2022-10-08T22:37:11.815Z,99617.69
2022-10-08T22:42:16.654Z,99626.41
2022-10-08T22:47:21.672Z,99624.75
2022-10-08T22:52:29.160Z,99633.97
2022-10-08T22:57:33.970Z,99623.41
2022-10-08T23:02:39.215Z,99630.34
2022-10-08T23:07:46.858Z,99631.72
2022-10-08T23:12:51.820Z,99629.91
2022-10-08T23:17:56.672Z,99634.19
2022-10-08T23:23:04.242Z,99646.94
2022-10-08T23:28:09.279Z,99651.22
2022-10-08T23:33:14.125Z,99652.53
2022-10-08T23:38:21.541Z,99655.97
2022-10-08T23:43:26.437Z,99662.91
2022-10-08T23:48:31.272Z,99653.88
2022-10-08T23:53:39.467Z,99662.06
2022-10-08T23:58:44.477Z,99663.41
